Tropical Cyclones
[Index]
Main Index Home Page Stock Weather Photos Extreme Storms Discussion Storm News and Storm Chasing Reports Tropical Cyclones / Hurricanes / Typhoons Weather Data and Links Wild Fires / Bushfires Weather Observation Techniques Weather Picture Catalogue Tornado Pictures and Reports Stock Video Footage and DVDs for sale
Season 1976-1977 Tropical Cyclone EMILIE Track Map
Season 1976-1977 Summaries: [BoM-AU] [JTWC-AU] [JTWC-SIO] [JTWC-SPAC] [JTWC-SH]
<<- Previous TC | JTWC 1976-1977 Season | Next TC ->>

click for intensity scale information  Lat/long Grid: Show Hide

 Date Labels: Show Hide

Joint Typhoon Warning Centre Cyclone Data

Name: EMILIE
Number: 941 / 7710

25 Jan 1977 06:00 UTC to 10 Feb 1977 18:00 UTC

    date/time    lat    long     hPa   cat  kts
1977-01-25 06   10.5    64.1                              
1977-01-25 12   10.8    63.2                              
1977-01-25 18   11.0    62.4                              
1977-01-26 00   11.2    61.5                              
1977-01-26 06   11.4    60.8                              
1977-01-26 12   11.5    60.4                              
1977-01-26 18   11.5    60.0                              
1977-01-27 00   11.6    59.6                              
1977-01-27 06   11.7    59.1                              
1977-01-27 12   11.8    58.6                              
1977-01-27 18   11.9    58.0                              
1977-01-28 00   12.0    57.5                              
1977-01-28 06   12.1    57.0                              
1977-01-28 12   12.3    56.5                              
1977-01-28 18   12.5    56.1                              
1977-01-29 00   12.6    55.7                              
1977-01-29 06   12.8    55.4                              
1977-01-29 12   13.3    54.9                              
1977-01-29 18   13.9    54.5                              
1977-01-30 00   14.5    54.8                              
1977-01-30 06   15.2    55.3                              
1977-01-30 12   15.8    55.4                              
1977-01-30 18   16.5    55.5                              
1977-01-31 00   17.1    55.5                              
1977-01-31 06   17.7    55.0                              
1977-01-31 12   18.2    54.1                              
1977-01-31 18   18.6    53.1                              
1977-02-01 00   19.0    52.2                              
1977-02-01 06   19.3    51.3                              
1977-02-01 12   19.6    50.4                              
1977-02-01 18   19.9    49.6                              
1977-02-02 00   20.1    48.9                              
1977-02-02 06   20.3    48.0                              
1977-02-02 12   20.4    46.6                              
1977-02-02 18   20.5    45.2                              
1977-02-03 00   20.5    43.8                              
1977-02-03 06   20.5    42.4                              
1977-02-03 12   20.7    41.3                              
1977-02-03 18   20.9    40.5                              
1977-02-04 00   21.1    39.8                              
1977-02-04 06   21.3    39.0                              
1977-02-04 12   21.5    38.2                              
1977-02-04 18   21.7    37.4                              
1977-02-05 00   21.8    36.6                              
1977-02-05 06   21.8    35.9                              
1977-02-05 12   21.8    35.3                              
1977-02-05 18   21.7    34.7                              
1977-02-06 00   21.5    34.1                              
1977-02-06 06   21.3    33.5                              
1977-02-06 12   21.3    33.1                              
1977-02-06 18   21.3    32.7                              
1977-02-07 00   21.3    32.3                              
1977-02-07 06   21.2    31.9                              
1977-02-07 12   21.0    31.4                              
1977-02-07 18   20.7    30.8                              
1977-02-08 00   20.5    30.1                              
1977-02-08 06   20.4    29.3                              
1977-02-08 12   19.9    28.2                              
1977-02-08 18   19.6    26.8                              
1977-02-09 00   19.8    25.3                              
1977-02-09 06   20.0    23.8                              
1977-02-09 12   20.2    22.1                              
1977-02-09 18   20.3    20.4                              
1977-02-10 00   20.4    19.0                              
1977-02-10 06   20.5    17.9                              
1977-02-10 12   20.5    17.7                              
1977-02-10 18   20.5    18.5                              
Winds are 1-min average.

Tropical cyclone tracks developed by Michael Bath using data from the Joint Typhoon Warning Centre Best Tracks and Google Maps.


[Australian Severe Weather index] [Copyright Notice] [Email Contacts] [Search This Site] [Privacy Policy]
Document: tropical_cyclone_emilie.htm Updated: 18 September 2016